sensor_id;sensor_type;location;lat;lon;timestamp;temperature;humidity
7472;DHT22;3777;48.722;8.110;2022-08-16T00:01:47;21.00;99.90
7472;DHT22;3777;48.722;8.110;2022-08-16T00:04:14;21.00;99.90
7472;DHT22;3777;48.722;8.110;2022-08-16T00:06:41;21.00;99.90
7472;DHT22;3777;48.722;8.110;2022-08-16T00:09:10;21.10;99.90
7472;DHT22;3777;48.722;8.110;2022-08-16T00:11:38;21.10;99.90
7472;DHT22;3777;48.722;8.110;2022-08-16T00:14:07;21.10;99.90
7472;DHT22;3777;48.722;8.110;2022-08-16T00:16:35;21.10;99.90
7472;DHT22;3777;48.722;8.110;2022-08-16T00:19:03;21.10;99.90
7472;DHT22;3777;48.722;8.110;2022-08-16T00:21:30;21.20;99.90
7472;DHT22;3777;48.722;8.110;2022-08-16T00:23:57;21.20;99.90
7472;DHT22;3777;48.722;8.110;2022-08-16T00:26:26;21.20;99.90
7472;DHT22;3777;48.722;8.110;2022-08-16T00:28:53;21.20;99.90
7472;DHT22;3777;48.722;8.110;2022-08-16T00:31:20;21.20;99.90
7472;DHT22;3777;48.722;8.110;2022-08-16T00:33:47;21.20;99.90
7472;DHT22;3777;48.722;8.110;2022-08-16T00:36:14;21.20;99.90
7472;DHT22;3777;48.722;8.110;2022-08-16T00:38:41;21.20;99.90
7472;DHT22;3777;48.722;8.110;2022-08-16T00:41:09;21.20;99.90
7472;DHT22;3777;48.722;8.110;2022-08-16T00:43:38;21.20;99.90
7472;DHT22;3777;48.722;8.110;2022-08-16T00:46:09;21.20;99.90
7472;DHT22;3777;48.722;8.110;2022-08-16T00:48:37;21.20;99.90
7472;DHT22;3777;48.722;8.110;2022-08-16T00:51:05;21.20;99.90
7472;DHT22;3777;48.722;8.110;2022-08-16T00:53:32;21.20;99.90
7472;DHT22;3777;48.722;8.110;2022-08-16T00:56:08;21.20;99.90
7472;DHT22;3777;48.722;8.110;2022-08-16T00:58:40;21.20;99.90
7472;DHT22;3777;48.722;8.110;2022-08-16T01:01:10;21.20;99.90
7472;DHT22;3777;48.722;8.110;2022-08-16T01:03:38;21.20;99.90
7472;DHT22;3777;48.722;8.110;2022-08-16T01:06:06;21.20;99.90
7472;DHT22;3777;48.722;8.110;2022-08-16T01:08:35;21.20;99.90
7472;DHT22;3777;48.722;8.110;2022-08-16T01:11:03;21.20;99.90
7472;DHT22;3777;48.722;8.110;2022-08-16T01:13:32;21.20;99.90
7472;DHT22;3777;48.722;8.110;2022-08-16T01:16:03;21.20;99.90
7472;DHT22;3777;48.722;8.110;2022-08-16T01:18:34;21.20;99.90
7472;DHT22;3777;48.722;8.110;2022-08-16T01:21:11;21.20;99.90
7472;DHT22;3777;48.722;8.110;2022-08-16T01:24:12;21.20;99.90
7472;DHT22;3777;48.722;8.110;2022-08-16T01:26:40;21.20;99.90
7472;DHT22;3777;48.722;8.110;2022-08-16T01:29:12;21.20;99.90
7472;DHT22;3777;48.722;8.110;2022-08-16T01:31:40;21.20;99.90
7472;DHT22;3777;48.722;8.110;2022-08-16T01:34:08;21.20;99.90
7472;DHT22;3777;48.722;8.110;2022-08-16T01:36:35;21.20;99.90
7472;DHT22;3777;48.722;8.110;2022-08-16T01:39:08;21.20;99.90
7472;DHT22;3777;48.722;8.110;2022-08-16T01:41:37;21.20;99.90
7472;DHT22;3777;48.722;8.110;2022-08-16T01:44:05;21.20;99.90
7472;DHT22;3777;48.722;8.110;2022-08-16T01:46:35;21.20;99.90
7472;DHT22;3777;48.722;8.110;2022-08-16T01:49:13;21.20;99.90
7472;DHT22;3777;48.722;8.110;2022-08-16T01:51:42;21.20;99.90
7472;DHT22;3777;48.722;8.110;2022-08-16T01:54:11;21.20;99.90
7472;DHT22;3777;48.722;8.110;2022-08-16T01:56:39;21.20;99.90
7472;DHT22;3777;48.722;8.110;2022-08-16T01:59:09;21.20;99.90
7472;DHT22;3777;48.722;8.110;2022-08-16T02:01:36;21.20;99.90
7472;DHT22;3777;48.722;8.110;2022-08-16T02:04:04;21.20;99.90
7472;DHT22;3777;48.722;8.110;2022-08-16T02:06:31;21.20;99.90
7472;DHT22;3777;48.722;8.110;2022-08-16T02:08:59;21.20;99.90
7472;DHT22;3777;48.722;8.110;2022-08-16T02:11:27;21.20;99.90
7472;DHT22;3777;48.722;8.110;2022-08-16T02:13:55;21.20;99.90
7472;DHT22;3777;48.722;8.110;2022-08-16T02:16:22;21.20;99.90
7472;DHT22;3777;48.722;8.110;2022-08-16T02:18:51;21.20;99.90
7472;DHT22;3777;48.722;8.110;2022-08-16T02:21:19;21.20;99.90
7472;DHT22;3777;48.722;8.110;2022-08-16T02:23:46;21.20;99.90
7472;DHT22;3777;48.722;8.110;2022-08-16T02:26:14;21.20;99.90
7472;DHT22;3777;48.722;8.110;2022-08-16T02:28:41;21.20;99.90
7472;DHT22;3777;48.722;8.110;2022-08-16T02:31:12;21.20;99.90
7472;DHT22;3777;48.722;8.110;2022-08-16T02:33:40;21.20;99.90
7472;DHT22;3777;48.722;8.110;2022-08-16T02:36:09;21.20;99.90
7472;DHT22;3777;48.722;8.110;2022-08-16T02:38:37;21.20;99.90
7472;DHT22;3777;48.722;8.110;2022-08-16T02:41:07;21.20;99.90
7472;DHT22;3777;48.722;8.110;2022-08-16T02:43:35;21.20;99.90
7472;DHT22;3777;48.722;8.110;2022-08-16T02:46:04;21.20;99.90
7472;DHT22;3777;48.722;8.110;2022-08-16T02:48:33;21.10;99.90
7472;DHT22;3777;48.722;8.110;2022-08-16T02:51:02;21.10;99.90
7472;DHT22;3777;48.722;8.110;2022-08-16T02:53:30;21.10;99.90
7472;DHT22;3777;48.722;8.110;2022-08-16T02:55:57;21.10;99.90
7472;DHT22;3777;48.722;8.110;2022-08-16T02:58:25;21.10;99.90
7472;DHT22;3777;48.722;8.110;2022-08-16T03:00:52;21.10;99.90
7472;DHT22;3777;48.722;8.110;2022-08-16T03:03:20;21.10;99.90
7472;DHT22;3777;48.722;8.110;2022-08-16T03:05:48;21.10;99.90
7472;DHT22;3777;48.722;8.110;2022-08-16T03:08:16;21.20;99.90
7472;DHT22;3777;48.722;8.110;2022-08-16T03:10:43;21.00;99.90
7472;DHT22;3777;48.722;8.110;2022-08-16T03:13:10;21.00;99.90
7472;DHT22;3777;48.722;8.110;2022-08-16T03:15:37;21.10;99.90
7472;DHT22;3777;48.722;8.110;2022-08-16T03:18:04;21.10;99.90
7472;DHT22;3777;48.722;8.110;2022-08-16T03:20:31;21.20;99.90
7472;DHT22;3777;48.722;8.110;2022-08-16T03:23:00;21.20;99.90
7472;DHT22;3777;48.722;8.110;2022-08-16T03:25:28;21.20;99.90
7472;DHT22;3777;48.722;8.110;2022-08-16T03:27:55;21.20;99.90
7472;DHT22;3777;48.722;8.110;2022-08-16T03:30:25;21.30;99.90
7472;DHT22;3777;48.722;8.110;2022-08-16T03:32:52;21.30;99.90
7472;DHT22;3777;48.722;8.110;2022-08-16T03:35:22;21.30;99.90
7472;DHT22;3777;48.722;8.110;2022-08-16T03:37:54;21.30;99.90
7472;DHT22;3777;48.722;8.110;2022-08-16T03:40:23;21.20;99.90
7472;DHT22;3777;48.722;8.110;2022-08-16T03:42:50;21.20;99.90
7472;DHT22;3777;48.722;8.110;2022-08-16T03:45:17;21.20;99.90
7472;DHT22;3777;48.722;8.110;2022-08-16T03:47:45;21.20;99.90
7472;DHT22;3777;48.722;8.110;2022-08-16T03:50:13;21.10;99.90
7472;DHT22;3777;48.722;8.110;2022-08-16T03:52:41;21.10;99.90
7472;DHT22;3777;48.722;8.110;2022-08-16T03:55:09;21.10;99.90
7472;DHT22;3777;48.722;8.110;2022-08-16T03:57:37;21.10;99.90
7472;DHT22;3777;48.722;8.110;2022-08-16T04:00:07;21.00;99.90
7472;DHT22;3777;48.722;8.110;2022-08-16T04:02:40;21.00;99.90
7472;DHT22;3777;48.722;8.110;2022-08-16T04:05:08;21.00;99.90
7472;DHT22;3777;48.722;8.110;2022-08-16T04:07:35;20.90;99.90
7472;DHT22;3777;48.722;8.110;2022-08-16T04:10:03;20.90;99.90
7472;DHT22;3777;48.722;8.110;2022-08-16T04:12:30;20.80;99.90
7472;DHT22;3777;48.722;8.110;2022-08-16T04:14:59;20.70;99.90
7472;DHT22;3777;48.722;8.110;2022-08-16T04:17:27;20.70;99.90
7472;DHT22;3777;48.722;8.110;2022-08-16T04:19:55;20.60;99.90
7472;DHT22;3777;48.722;8.110;2022-08-16T04:22:22;20.60;99.90
7472;DHT22;3777;48.722;8.110;2022-08-16T04:24:51;20.50;99.90
7472;DHT22;3777;48.722;8.110;2022-08-16T04:27:18;20.50;99.90
7472;DHT22;3777;48.722;8.110;2022-08-16T04:29:45;20.50;99.90
7472;DHT22;3777;48.722;8.110;2022-08-16T04:32:13;20.40;99.90
7472;DHT22;3777;48.722;8.110;2022-08-16T04:34:40;20.40;99.90
7472;DHT22;3777;48.722;8.110;2022-08-16T04:37:07;20.40;99.90
7472;DHT22;3777;48.722;8.110;2022-08-16T04:39:36;20.30;99.90
7472;DHT22;3777;48.722;8.110;2022-08-16T04:42:04;20.30;99.90
7472;DHT22;3777;48.722;8.110;2022-08-16T04:44:31;20.30;99.90
7472;DHT22;3777;48.722;8.110;2022-08-16T04:46:58;20.20;99.90
7472;DHT22;3777;48.722;8.110;2022-08-16T04:49:27;20.20;99.90
7472;DHT22;3777;48.722;8.110;2022-08-16T04:51:54;20.20;99.90
7472;DHT22;3777;48.722;8.110;2022-08-16T04:54:21;20.10;99.90
7472;DHT22;3777;48.722;8.110;2022-08-16T04:56:48;20.20;99.90
7472;DHT22;3777;48.722;8.110;2022-08-16T04:59:15;20.10;99.90
7472;DHT22;3777;48.722;8.110;2022-08-16T05:01:42;20.10;99.90
7472;DHT22;3777;48.722;8.110;2022-08-16T05:04:09;20.10;99.90
7472;DHT22;3777;48.722;8.110;2022-08-16T05:06:38;20.10;99.90
7472;DHT22;3777;48.722;8.110;2022-08-16T05:09:05;20.10;99.90
7472;DHT22;3777;48.722;8.110;2022-08-16T05:11:32;20.10;99.90
7472;DHT22;3777;48.722;8.110;2022-08-16T05:13:59;20.10;99.90
7472;DHT22;3777;48.722;8.110;2022-08-16T05:16:29;20.10;99.90
7472;DHT22;3777;48.722;8.110;2022-08-16T05:18:58;20.10;99.90
7472;DHT22;3777;48.722;8.110;2022-08-16T05:21:25;20.10;99.90
7472;DHT22;3777;48.722;8.110;2022-08-16T05:23:57;20.20;99.90
7472;DHT22;3777;48.722;8.110;2022-08-16T05:26:26;20.20;99.90
7472;DHT22;3777;48.722;8.110;2022-08-16T05:28:53;20.30;99.90
7472;DHT22;3777;48.722;8.110;2022-08-16T05:31:20;20.30;99.90
7472;DHT22;3777;48.722;8.110;2022-08-16T05:33:47;20.40;99.90
7472;DHT22;3777;48.722;8.110;2022-08-16T05:36:14;20.50;99.90
7472;DHT22;3777;48.722;8.110;2022-08-16T05:38:41;20.60;99.90
7472;DHT22;3777;48.722;8.110;2022-08-16T05:41:09;20.70;99.90
7472;DHT22;3777;48.722;8.110;2022-08-16T05:43:37;20.80;99.90
7472;DHT22;3777;48.722;8.110;2022-08-16T05:46:04;20.90;99.90
7472;DHT22;3777;48.722;8.110;2022-08-16T05:48:31;20.90;99.90
7472;DHT22;3777;48.722;8.110;2022-08-16T05:50:58;21.00;99.90
7472;DHT22;3777;48.722;8.110;2022-08-16T05:53:25;21.10;99.90
7472;DHT22;3777;48.722;8.110;2022-08-16T05:55:52;21.20;99.90
7472;DHT22;3777;48.722;8.110;2022-08-16T05:58:21;21.40;99.90
7472;DHT22;3777;48.722;8.110;2022-08-16T06:00:48;21.50;99.90
7472;DHT22;3777;48.722;8.110;2022-08-16T06:03:15;21.70;99.90
7472;DHT22;3777;48.722;8.110;2022-08-16T06:05:42;22.10;99.90
7472;DHT22;3777;48.722;8.110;2022-08-16T06:08:08;22.40;99.90
7472;DHT22;3777;48.722;8.110;2022-08-16T06:10:35;22.60;99.90
7472;DHT22;3777;48.722;8.110;2022-08-16T06:13:02;23.00;99.90
7472;DHT22;3777;48.722;8.110;2022-08-16T06:15:31;23.40;99.90
7472;DHT22;3777;48.722;8.110;2022-08-16T06:17:58;23.60;99.90
7472;DHT22;3777;48.722;8.110;2022-08-16T06:20:27;23.50;99.90
7472;DHT22;3777;48.722;8.110;2022-08-16T06:22:55;24.10;99.90
7472;DHT22;3777;48.722;8.110;2022-08-16T06:25:23;24.80;99.90
7472;DHT22;3777;48.722;8.110;2022-08-16T06:27:51;25.40;99.90
7472;DHT22;3777;48.722;8.110;2022-08-16T06:30:19;25.60;99.90
7472;DHT22;3777;48.722;8.110;2022-08-16T06:32:47;25.40;99.90
7472;DHT22;3777;48.722;8.110;2022-08-16T06:35:14;25.20;99.90
7472;DHT22;3777;48.722;8.110;2022-08-16T06:37:42;25.60;99.90
7472;DHT22;3777;48.722;8.110;2022-08-16T06:40:09;25.60;99.90
7472;DHT22;3777;48.722;8.110;2022-08-16T06:42:37;25.70;99.90
7472;DHT22;3777;48.722;8.110;2022-08-16T06:45:05;25.50;99.90
7472;DHT22;3777;48.722;8.110;2022-08-16T06:47:32;25.30;99.90
7472;DHT22;3777;48.722;8.110;2022-08-16T06:50:00;25.30;99.90
7472;DHT22;3777;48.722;8.110;2022-08-16T06:52:27;25.10;99.90
7472;DHT22;3777;48.722;8.110;2022-08-16T06:55:02;24.80;99.90
7472;DHT22;3777;48.722;8.110;2022-08-16T06:57:29;24.50;99.90
7472;DHT22;3777;48.722;8.110;2022-08-16T06:59:56;24.40;99.90
7472;DHT22;3777;48.722;8.110;2022-08-16T07:02:23;24.30;99.90
7472;DHT22;3777;48.722;8.110;2022-08-16T07:04:50;24.20;99.90
7472;DHT22;3777;48.722;8.110;2022-08-16T07:07:19;24.00;99.90
7472;DHT22;3777;48.722;8.110;2022-08-16T07:09:46;24.20;99.90
7472;DHT22;3777;48.722;8.110;2022-08-16T07:12:13;24.30;99.90
7472;DHT22;3777;48.722;8.110;2022-08-16T07:14:40;24.20;99.90
7472;DHT22;3777;48.722;8.110;2022-08-16T07:17:07;24.30;99.90
7472;DHT22;3777;48.722;8.110;2022-08-16T07:19:34;24.40;99.90
7472;DHT22;3777;48.722;8.110;2022-08-16T07:22:01;24.30;99.90
7472;DHT22;3777;48.722;8.110;2022-08-16T07:24:30;24.30;99.90
7472;DHT22;3777;48.722;8.110;2022-08-16T07:26:57;24.60;99.90
7472;DHT22;3777;48.722;8.110;2022-08-16T07:29:24;24.70;99.90
7472;DHT22;3777;48.722;8.110;2022-08-16T07:31:55;24.90;99.90
7472;DHT22;3777;48.722;8.110;2022-08-16T07:34:22;25.00;99.90
7472;DHT22;3777;48.722;8.110;2022-08-16T07:36:48;25.20;99.90
7472;DHT22;3777;48.722;8.110;2022-08-16T07:39:15;25.40;99.90
7472;DHT22;3777;48.722;8.110;2022-08-16T07:41:45;25.50;99.90
7472;DHT22;3777;48.722;8.110;2022-08-16T07:44:12;25.50;99.90
7472;DHT22;3777;48.722;8.110;2022-08-16T07:46:39;25.80;99.90
7472;DHT22;3777;48.722;8.110;2022-08-16T07:49:06;26.10;99.90
7472;DHT22;3777;48.722;8.110;2022-08-16T07:51:34;26.40;99.90
7472;DHT22;3777;48.722;8.110;2022-08-16T07:54:02;26.70;99.90
7472;DHT22;3777;48.722;8.110;2022-08-16T07:56:30;26.80;99.90
7472;DHT22;3777;48.722;8.110;2022-08-16T07:58:58;26.60;99.90
7472;DHT22;3777;48.722;8.110;2022-08-16T08:01:26;26.30;99.90
7472;DHT22;3777;48.722;8.110;2022-08-16T08:03:55;26.40;99.90
7472;DHT22;3777;48.722;8.110;2022-08-16T08:06:24;26.50;99.90
7472;DHT22;3777;48.722;8.110;2022-08-16T08:08:52;26.50;99.90
7472;DHT22;3777;48.722;8.110;2022-08-16T08:11:20;26.50;99.90
7472;DHT22;3777;48.722;8.110;2022-08-16T08:13:47;26.40;99.90
7472;DHT22;3777;48.722;8.110;2022-08-16T08:16:16;26.70;99.90
7472;DHT22;3777;48.722;8.110;2022-08-16T08:18:44;26.90;99.90
7472;DHT22;3777;48.722;8.110;2022-08-16T08:21:11;27.10;99.90
7472;DHT22;3777;48.722;8.110;2022-08-16T08:23:38;26.90;99.90
7472;DHT22;3777;48.722;8.110;2022-08-16T08:26:05;27.00;99.90
7472;DHT22;3777;48.722;8.110;2022-08-16T08:28:32;26.90;99.90
7472;DHT22;3777;48.722;8.110;2022-08-16T08:30:59;26.80;99.90
7472;DHT22;3777;48.722;8.110;2022-08-16T08:33:29;26.70;99.90
7472;DHT22;3777;48.722;8.110;2022-08-16T08:35:58;27.10;99.90
7472;DHT22;3777;48.722;8.110;2022-08-16T08:38:26;27.40;99.90
7472;DHT22;3777;48.722;8.110;2022-08-16T08:40:54;27.50;99.90
7472;DHT22;3777;48.722;8.110;2022-08-16T08:43:21;27.40;99.90
7472;DHT22;3777;48.722;8.110;2022-08-16T08:45:50;27.70;99.90
7472;DHT22;3777;48.722;8.110;2022-08-16T08:48:17;28.00;99.90
7472;DHT22;3777;48.722;8.110;2022-08-16T08:50:46;28.50;99.90
7472;DHT22;3777;48.722;8.110;2022-08-16T08:53:14;29.20;99.90
7472;DHT22;3777;48.722;8.110;2022-08-16T08:55:41;29.70;99.90
7472;DHT22;3777;48.722;8.110;2022-08-16T08:58:09;28.90;99.90
7472;DHT22;3777;48.722;8.110;2022-08-16T09:00:37;29.20;99.90
7472;DHT22;3777;48.722;8.110;2022-08-16T09:03:04;29.50;99.90
7472;DHT22;3777;48.722;8.110;2022-08-16T09:05:31;30.00;99.90
7472;DHT22;3777;48.722;8.110;2022-08-16T09:08:01;30.10;99.90
7472;DHT22;3777;48.722;8.110;2022-08-16T09:10:28;29.90;99.90
7472;DHT22;3777;48.722;8.110;2022-08-16T09:12:56;29.40;99.30
7472;DHT22;3777;48.722;8.110;2022-08-16T09:15:23;29.40;99.90
7472;DHT22;3777;48.722;8.110;2022-08-16T09:17:51;30.00;99.90
7472;DHT22;3777;48.722;8.110;2022-08-16T09:20:22;30.70;98.30
7472;DHT22;3777;48.722;8.110;2022-08-16T09:22:50;30.70;97.50
7472;DHT22;3777;48.722;8.110;2022-08-16T09:25:18;30.50;96.40
7472;DHT22;3777;48.722;8.110;2022-08-16T09:27:46;30.80;98.10
7472;DHT22;3777;48.722;8.110;2022-08-16T09:30:13;31.40;97.00
7472;DHT22;3777;48.722;8.110;2022-08-16T09:32:40;31.30;97.60
7472;DHT22;3777;48.722;8.110;2022-08-16T09:35:08;31.30;96.90
7472;DHT22;3777;48.722;8.110;2022-08-16T09:37:35;31.30;95.50
7472;DHT22;3777;48.722;8.110;2022-08-16T09:40:03;31.50;94.80
7472;DHT22;3777;48.722;8.110;2022-08-16T09:42:32;32.30;93.10
7472;DHT22;3777;48.722;8.110;2022-08-16T09:44:59;32.90;91.00
7472;DHT22;3777;48.722;8.110;2022-08-16T09:47:26;32.30;90.70
7472;DHT22;3777;48.722;8.110;2022-08-16T09:49:53;32.40;92.90
7472;DHT22;3777;48.722;8.110;2022-08-16T09:52:20;33.00;89.60
7472;DHT22;3777;48.722;8.110;2022-08-16T09:54:47;33.90;82.80
7472;DHT22;3777;48.722;8.110;2022-08-16T09:57:14;34.20;82.20
7472;DHT22;3777;48.722;8.110;2022-08-16T09:59:43;35.20;80.80
7472;DHT22;3777;48.722;8.110;2022-08-16T10:02:10;36.90;71.90
7472;DHT22;3777;48.722;8.110;2022-08-16T10:04:37;36.50;61.40
7472;DHT22;3777;48.722;8.110;2022-08-16T10:07:04;35.00;62.50
7472;DHT22;3777;48.722;8.110;2022-08-16T10:09:31;36.10;66.60
7472;DHT22;3777;48.722;8.110;2022-08-16T10:11:58;37.20;64.50
7472;DHT22;3777;48.722;8.110;2022-08-16T10:14:43;36.70;57.90
7472;DHT22;3777;48.722;8.110;2022-08-16T10:17:10;38.10;57.50
7472;DHT22;3777;48.722;8.110;2022-08-16T10:19:37;39.20;56.00
7472;DHT22;3777;48.722;8.110;2022-08-16T10:22:04;40.60;54.20
7472;DHT22;3777;48.722;8.110;2022-08-16T10:24:32;41.20;48.20
7472;DHT22;3777;48.722;8.110;2022-08-16T10:26:59;41.30;48.10
7472;DHT22;3777;48.722;8.110;2022-08-16T10:29:26;39.70;44.40
7472;DHT22;3777;48.722;8.110;2022-08-16T10:31:54;40.60;48.20
7472;DHT22;3777;48.722;8.110;2022-08-16T10:34:22;41.00;44.70
7472;DHT22;3777;48.722;8.110;2022-08-16T10:36:49;41.90;43.20
7472;DHT22;3777;48.722;8.110;2022-08-16T10:39:16;42.20;42.60
7472;DHT22;3777;48.722;8.110;2022-08-16T10:41:43;41.30;42.50
7472;DHT22;3777;48.722;8.110;2022-08-16T10:44:10;41.10;42.90
7472;DHT22;3777;48.722;8.110;2022-08-16T10:46:38;40.90;43.10
7472;DHT22;3777;48.722;8.110;2022-08-16T10:49:08;42.10;43.70
7472;DHT22;3777;48.722;8.110;2022-08-16T10:51:35;42.90;39.00
7472;DHT22;3777;48.722;8.110;2022-08-16T10:54:03;43.50;38.50
7472;DHT22;3777;48.722;8.110;2022-08-16T10:56:31;42.80;37.80
7472;DHT22;3777;48.722;8.110;2022-08-16T10:58:58;40.20;36.90
7472;DHT22;3777;48.722;8.110;2022-08-16T11:01:25;38.80;38.70
7472;DHT22;3777;48.722;8.110;2022-08-16T11:03:53;37.50;41.20
7472;DHT22;3777;48.722;8.110;2022-08-16T11:06:22;38.90;41.30
7472;DHT22;3777;48.722;8.110;2022-08-16T11:08:49;40.40;41.20
7472;DHT22;3777;48.722;8.110;2022-08-16T11:11:16;40.20;38.60
7472;DHT22;3777;48.722;8.110;2022-08-16T11:13:43;39.50;39.80
7472;DHT22;3777;48.722;8.110;2022-08-16T11:16:11;38.50;42.80
7472;DHT22;3777;48.722;8.110;2022-08-16T11:18:38;37.40;41.20
7472;DHT22;3777;48.722;8.110;2022-08-16T11:21:06;36.50;43.70
7472;DHT22;3777;48.722;8.110;2022-08-16T11:23:34;35.70;45.60
7472;DHT22;3777;48.722;8.110;2022-08-16T11:26:01;35.10;43.90
7472;DHT22;3777;48.722;8.110;2022-08-16T11:28:28;34.50;45.00
7472;DHT22;3777;48.722;8.110;2022-08-16T11:30:55;33.90;51.40
7472;DHT22;3777;48.722;8.110;2022-08-16T11:33:24;33.40;49.70
7472;DHT22;3777;48.722;8.110;2022-08-16T11:35:51;32.90;49.80
7472;DHT22;3777;48.722;8.110;2022-08-16T11:38:20;32.60;50.30
7472;DHT22;3777;48.722;8.110;2022-08-16T11:40:50;32.40;52.40
7472;DHT22;3777;48.722;8.110;2022-08-16T11:43:24;32.30;49.80
7472;DHT22;3777;48.722;8.110;2022-08-16T11:45:51;32.00;51.30
7472;DHT22;3777;48.722;8.110;2022-08-16T11:48:20;31.50;53.40
7472;DHT22;3777;48.722;8.110;2022-08-16T11:50:47;30.90;51.80
7472;DHT22;3777;48.722;8.110;2022-08-16T11:53:14;30.80;52.10
7472;DHT22;3777;48.722;8.110;2022-08-16T11:55:42;30.70;52.60
7472;DHT22;3777;48.722;8.110;2022-08-16T11:58:11;30.30;52.20
7472;DHT22;3777;48.722;8.110;2022-08-16T12:00:40;30.40;58.00
7472;DHT22;3777;48.722;8.110;2022-08-16T12:03:08;30.60;56.00
7472;DHT22;3777;48.722;8.110;2022-08-16T12:05:35;30.60;56.20
7472;DHT22;3777;48.722;8.110;2022-08-16T12:08:04;30.70;57.00
7472;DHT22;3777;48.722;8.110;2022-08-16T12:10:33;30.90;53.10
7472;DHT22;3777;48.722;8.110;2022-08-16T12:13:00;30.90;56.50
7472;DHT22;3777;48.722;8.110;2022-08-16T12:15:29;31.10;58.70
7472;DHT22;3777;48.722;8.110;2022-08-16T12:17:56;31.10;56.60
7472;DHT22;3777;48.722;8.110;2022-08-16T12:20:26;31.20;57.00
7472;DHT22;3777;48.722;8.110;2022-08-16T12:22:54;31.30;54.80
7472;DHT22;3777;48.722;8.110;2022-08-16T12:25:23;31.30;53.20
7472;DHT22;3777;48.722;8.110;2022-08-16T12:27:51;31.10;53.90
7472;DHT22;3777;48.722;8.110;2022-08-16T12:30:20;31.10;51.10
7472;DHT22;3777;48.722;8.110;2022-08-16T12:32:50;30.90;50.40
7472;DHT22;3777;48.722;8.110;2022-08-16T12:35:20;30.80;54.10
7472;DHT22;3777;48.722;8.110;2022-08-16T12:37:49;30.90;52.60
7472;DHT22;3777;48.722;8.110;2022-08-16T12:40:18;30.90;55.50
7472;DHT22;3777;48.722;8.110;2022-08-16T12:42:46;30.90;54.00
7472;DHT22;3777;48.722;8.110;2022-08-16T12:45:17;30.90;53.10
7472;DHT22;3777;48.722;8.110;2022-08-16T12:47:45;30.80;50.60
7472;DHT22;3777;48.722;8.110;2022-08-16T12:50:31;30.80;50.70
7472;DHT22;3777;48.722;8.110;2022-08-16T12:52:58;30.80;52.80
7472;DHT22;3777;48.722;8.110;2022-08-16T12:55:26;30.80;52.00
7472;DHT22;3777;48.722;8.110;2022-08-16T12:57:56;30.80;51.30
7472;DHT22;3777;48.722;8.110;2022-08-16T13:00:26;30.80;50.40
7472;DHT22;3777;48.722;8.110;2022-08-16T13:02:54;30.50;50.10
7472;DHT22;3777;48.722;8.110;2022-08-16T13:05:22;29.90;50.20
7472;DHT22;3777;48.722;8.110;2022-08-16T13:07:51;29.90;51.60
7472;DHT22;3777;48.722;8.110;2022-08-16T13:10:18;30.00;56.00
7472;DHT22;3777;48.722;8.110;2022-08-16T13:12:49;30.10;55.50
7472;DHT22;3777;48.722;8.110;2022-08-16T13:15:22;30.30;53.00
7472;DHT22;3777;48.722;8.110;2022-08-16T13:17:50;30.40;53.00
7472;DHT22;3777;48.722;8.110;2022-08-16T13:20:20;30.50;52.80
7472;DHT22;3777;48.722;8.110;2022-08-16T13:22:52;30.50;53.00
7472;DHT22;3777;48.722;8.110;2022-08-16T13:25:22;30.50;52.20
7472;DHT22;3777;48.722;8.110;2022-08-16T13:27:51;30.50;55.10
7472;DHT22;3777;48.722;8.110;2022-08-16T13:30:18;30.60;54.50
7472;DHT22;3777;48.722;8.110;2022-08-16T13:32:45;30.70;55.40
7472;DHT22;3777;48.722;8.110;2022-08-16T13:35:12;30.70;53.00
7472;DHT22;3777;48.722;8.110;2022-08-16T13:37:39;30.80;55.70
7472;DHT22;3777;48.722;8.110;2022-08-16T13:40:09;30.80;52.30
7472;DHT22;3777;48.722;8.110;2022-08-16T13:42:37;30.80;52.10
7472;DHT22;3777;48.722;8.110;2022-08-16T13:45:06;30.60;51.40
7472;DHT22;3777;48.722;8.110;2022-08-16T13:47:33;30.30;52.30
7472;DHT22;3777;48.722;8.110;2022-08-16T13:50:00;30.30;54.30
7472;DHT22;3777;48.722;8.110;2022-08-16T13:52:27;30.40;55.20
7472;DHT22;3777;48.722;8.110;2022-08-16T13:54:54;30.50;53.80
7472;DHT22;3777;48.722;8.110;2022-08-16T13:57:23;30.50;53.50
7472;DHT22;3777;48.722;8.110;2022-08-16T13:59:50;30.50;55.30
7472;DHT22;3777;48.722;8.110;2022-08-16T14:02:17;30.60;53.70
7472;DHT22;3777;48.722;8.110;2022-08-16T14:04:44;30.60;55.00
7472;DHT22;3777;48.722;8.110;2022-08-16T14:07:13;30.60;52.80
7472;DHT22;3777;48.722;8.110;2022-08-16T14:09:41;30.30;55.60
7472;DHT22;3777;48.722;8.110;2022-08-16T14:12:18;30.40;56.00
7472;DHT22;3777;48.722;8.110;2022-08-16T14:14:47;30.50;57.10
7472;DHT22;3777;48.722;8.110;2022-08-16T14:17:15;30.60;54.20
7472;DHT22;3777;48.722;8.110;2022-08-16T14:19:43;30.70;52.80
7472;DHT22;3777;48.722;8.110;2022-08-16T14:22:15;30.60;53.60
7472;DHT22;3777;48.722;8.110;2022-08-16T14:24:42;30.60;54.10
7472;DHT22;3777;48.722;8.110;2022-08-16T14:27:09;30.60;54.70
7472;DHT22;3777;48.722;8.110;2022-08-16T14:29:37;30.50;53.70
7472;DHT22;3777;48.722;8.110;2022-08-16T14:32:06;30.50;53.70
7472;DHT22;3777;48.722;8.110;2022-08-16T14:34:33;30.40;53.70
7472;DHT22;3777;48.722;8.110;2022-08-16T14:37:00;30.40;53.00
7472;DHT22;3777;48.722;8.110;2022-08-16T14:39:30;30.40;53.30
7472;DHT22;3777;48.722;8.110;2022-08-16T14:42:03;30.30;53.30
7472;DHT22;3777;48.722;8.110;2022-08-16T14:44:31;30.20;56.20
7472;DHT22;3777;48.722;8.110;2022-08-16T14:46:58;30.20;56.60
7472;DHT22;3777;48.722;8.110;2022-08-16T14:49:26;30.10;56.60
7472;DHT22;3777;48.722;8.110;2022-08-16T14:51:54;30.10;58.50
7472;DHT22;3777;48.722;8.110;2022-08-16T14:54:24;30.10;54.50
7472;DHT22;3777;48.722;8.110;2022-08-16T14:56:52;30.00;56.60
7472;DHT22;3777;48.722;8.110;2022-08-16T14:59:18;29.90;54.70
7472;DHT22;3777;48.722;8.110;2022-08-16T15:01:45;29.70;55.20
7472;DHT22;3777;48.722;8.110;2022-08-16T15:04:13;29.60;55.30
7472;DHT22;3777;48.722;8.110;2022-08-16T15:06:41;29.50;54.60
7472;DHT22;3777;48.722;8.110;2022-08-16T15:09:08;29.60;54.80
7472;DHT22;3777;48.722;8.110;2022-08-16T15:11:36;29.50;54.60
7472;DHT22;3777;48.722;8.110;2022-08-16T15:14:03;29.50;55.00
7472;DHT22;3777;48.722;8.110;2022-08-16T15:16:30;29.60;54.70
7472;DHT22;3777;48.722;8.110;2022-08-16T15:18:57;29.60;56.30
7472;DHT22;3777;48.722;8.110;2022-08-16T15:21:24;29.60;57.50
7472;DHT22;3777;48.722;8.110;2022-08-16T15:23:53;29.70;55.50
7472;DHT22;3777;48.722;8.110;2022-08-16T15:26:21;29.70;55.40
7472;DHT22;3777;48.722;8.110;2022-08-16T15:28:48;29.70;54.80
7472;DHT22;3777;48.722;8.110;2022-08-16T15:31:16;29.70;55.10
7472;DHT22;3777;48.722;8.110;2022-08-16T15:33:45;29.80;54.70
7472;DHT22;3777;48.722;8.110;2022-08-16T15:36:14;29.80;56.70
7472;DHT22;3777;48.722;8.110;2022-08-16T15:38:42;29.90;53.90
7472;DHT22;3777;48.722;8.110;2022-08-16T15:41:28;29.90;54.50
7472;DHT22;3777;48.722;8.110;2022-08-16T15:43:57;29.80;55.00
7472;DHT22;3777;48.722;8.110;2022-08-16T15:46:24;29.80;56.40
7472;DHT22;3777;48.722;8.110;2022-08-16T15:48:51;29.90;54.50
7472;DHT22;3777;48.722;8.110;2022-08-16T15:51:18;29.90;54.00
7472;DHT22;3777;48.722;8.110;2022-08-16T15:53:44;29.90;55.70
7472;DHT22;3777;48.722;8.110;2022-08-16T15:56:13;29.90;56.20
7472;DHT22;3777;48.722;8.110;2022-08-16T15:58:40;29.80;56.30
7472;DHT22;3777;48.722;8.110;2022-08-16T16:01:07;29.80;55.50
7472;DHT22;3777;48.722;8.110;2022-08-16T16:03:34;29.80;54.80
7472;DHT22;3777;48.722;8.110;2022-08-16T16:06:02;29.80;54.70
7472;DHT22;3777;48.722;8.110;2022-08-16T16:08:30;29.80;54.30